Time,TemperatureF,DewpointF,PressureIn,WindDirection,WindDirectionDegrees,WindSpeedMPH,WindSpeedGustMPH,Humidity,HourlyPrecipIn,Conditions,Clouds,dailyrainin,SoftwareType,DateUTC
2013-07-26 00:00:00,66.0,42.0,30.02,WSW,247,6.0,12.0,42,0.00,,,0.00,,2013-07-26 04:00:00,
2013-07-26 00:43:00,66.0,42.0,30.02,WSW,247,6.0,12.0,42,0.00,,,0.00,,2013-07-26 04:43:00,
2013-07-26 00:53:00,66.0,42.0,30.02,WSW,247,6.0,12.0,42,0.00,,,0.00,,2013-07-26 04:53:00,
2013-07-26 01:00:00,62.0,45.0,30.03,SW,232,4.0,12.0,53,0.00,,,0.00,,2013-07-26 05:00:00,
2013-07-26 01:32:00,62.0,45.0,30.03,SW,232,4.0,12.0,53,0.00,,,0.00,,2013-07-26 05:32:00,
2013-07-26 01:43:00,62.0,45.0,30.03,SW,232,4.0,12.0,53,0.00,,,0.00,,2013-07-26 05:43:00,
2013-07-26 01:52:00,62.0,45.0,30.03,SW,232,4.0,12.0,53,0.00,,,0.00,,2013-07-26 05:52:00,
2013-07-26 02:00:00,58.0,45.0,30.04,WSW,241,3.0,8.0,61,0.00,,,0.00,,2013-07-26 06:00:00,
2013-07-26 02:33:00,58.0,45.0,30.04,WSW,241,3.0,8.0,61,0.00,,,0.00,,2013-07-26 06:33:00,
2013-07-26 02:43:00,58.0,45.0,30.04,WSW,241,3.0,8.0,61,0.00,,,0.00,,2013-07-26 06:43:00,
2013-07-26 02:52:00,58.0,45.0,30.04,WSW,241,3.0,8.0,61,0.00,,,0.00,,2013-07-26 06:52:00,
2013-07-26 03:00:00,57.0,43.0,30.05,WSW,242,3.0,8.0,59,0.00,,,0.00,,2013-07-26 07:00:00,
2013-07-26 03:32:00,57.0,43.0,30.05,WSW,242,3.0,8.0,59,0.00,,,0.00,,2013-07-26 07:32:00,
2013-07-26 03:43:00,57.0,43.0,30.05,WSW,242,3.0,8.0,59,0.00,,,0.00,,2013-07-26 07:43:00,
2013-07-26 03:53:00,57.0,43.0,30.05,WSW,242,3.0,8.0,59,0.00,,,0.00,,2013-07-26 07:53:00,
2013-07-26 04:00:00,56.0,43.0,30.05,WSW,252,5.0,9.0,62,0.00,,,0.00,,2013-07-26 08:00:00,
2013-07-26 04:32:00,56.0,43.0,30.05,WSW,252,5.0,9.0,62,0.00,,,0.00,,2013-07-26 08:32:00,
2013-07-26 04:44:00,56.0,43.0,30.05,WSW,252,5.0,9.0,62,0.00,,,0.00,,2013-07-26 08:44:00,
2013-07-26 04:52:00,56.0,43.0,30.05,WSW,252,5.0,9.0,62,0.00,,,0.00,,2013-07-26 08:52:00,
2013-07-26 05:00:00,55.0,42.0,30.05,WSW,249,5.0,11.0,62,0.00,,,0.00,,2013-07-26 09:00:00,
2013-07-26 05:32:00,55.0,42.0,30.05,WSW,249,5.0,11.0,62,0.00,,,0.00,,2013-07-26 09:32:00,
2013-07-26 05:43:00,55.0,42.0,30.05,WSW,249,5.0,11.0,62,0.00,,,0.00,,2013-07-26 09:43:00,
2013-07-26 05:52:00,55.0,42.0,30.05,WSW,249,5.0,11.0,62,0.00,,,0.00,,2013-07-26 09:52:00,
2013-07-26 06:00:00,54.0,42.0,30.06,WSW,237,4.0,11.0,64,0.00,,,0.00,,2013-07-26 10:00:00,
2013-07-26 06:33:00,54.0,42.0,30.06,WSW,237,4.0,11.0,64,0.00,,,0.00,,2013-07-26 10:33:00,
2013-07-26 06:42:00,54.0,42.0,30.06,WSW,237,4.0,11.0,64,0.00,,,0.00,,2013-07-26 10:42:00,
2013-07-26 06:52:00,54.0,42.0,30.06,WSW,237,4.0,11.0,64,0.00,,,0.00,,2013-07-26 10:52:00,
2013-07-26 07:00:00,53.0,42.0,30.06,West,267,4.0,9.0,66,0.00,,,0.00,,2013-07-26 11:00:00,
2013-07-26 07:43:00,53.0,42.0,30.06,West,267,4.0,9.0,66,0.00,,,0.00,,2013-07-26 11:43:00,
2013-07-26 07:52:00,53.0,42.0,30.06,West,267,4.0,9.0,66,0.00,,,0.00,,2013-07-26 11:52:00,
2013-07-26 08:00:00,52.0,42.0,30.06,West,280,4.0,8.0,69,0.00,,,0.00,,2013-07-26 12:00:00,
2013-07-26 08:33:00,52.0,42.0,30.06,West,280,4.0,8.0,69,0.00,,,0.00,,2013-07-26 12:33:00,
2013-07-26 08:43:00,52.0,42.0,30.06,West,280,4.0,8.0,69,0.00,,,0.00,,2013-07-26 12:43:00,
2013-07-26 08:53:00,52.0,42.0,30.06,West,280,4.0,8.0,69,0.00,,,0.00,,2013-07-26 12:53:00,
2013-07-26 09:00:00,53.0,43.0,30.08,WSW,240,4.0,9.0,69,0.00,,,0.00,,2013-07-26 13:00:00,
2013-07-26 09:43:00,53.0,43.0,30.08,WSW,240,4.0,9.0,69,0.00,,,0.00,,2013-07-26 13:43:00,
2013-07-26 09:53:00,53.0,43.0,30.08,WSW,240,4.0,9.0,69,0.00,,,0.00,,2013-07-26 13:53:00,
2013-07-26 10:00:00,53.0,43.0,30.08,SW,236,4.0,9.0,68,0.00,,,0.00,,2013-07-26 14:00:00,
2013-07-26 10:43:00,53.0,43.0,30.08,SW,236,4.0,9.0,68,0.00,,,0.00,,2013-07-26 14:43:00,
2013-07-26 10:53:00,53.0,43.0,30.08,SW,236,4.0,9.0,68,0.00,,,0.00,,2013-07-26 14:53:00,
2013-07-26 11:00:00,54.0,42.0,30.09,SW,230,5.0,11.0,63,0.00,,,0.00,,2013-07-26 15:00:00,
2013-07-26 11:43:00,54.0,42.0,30.09,SW,230,5.0,11.0,63,0.00,,,0.00,,2013-07-26 15:43:00,
2013-07-26 11:53:00,54.0,42.0,30.09,SW,230,5.0,11.0,63,0.00,,,0.00,,2013-07-26 15:53:00,
2013-07-26 12:00:00,55.0,41.0,30.09,SW,232,5.0,13.0,60,0.00,,,0.00,,2013-07-26 16:00:00,
2013-07-26 12:43:00,55.0,41.0,30.09,SW,232,5.0,13.0,60,0.00,,,0.00,,2013-07-26 16:43:00,
2013-07-26 12:54:00,55.0,41.0,30.09,SW,232,5.0,13.0,60,0.00,,,0.00,,2013-07-26 16:54:00,
2013-07-26 13:00:00,54.0,39.0,30.10,WSW,252,6.0,14.0,57,0.00,,,-99.99,,2013-07-26 17:00:00,
2013-07-26 13:33:00,54.0,39.0,30.10,WSW,252,6.0,14.0,57,0.00,,,-99.99,,2013-07-26 17:33:00,
2013-07-26 13:43:00,54.0,39.0,30.10,WSW,252,6.0,14.0,57,0.00,,,-99.99,,2013-07-26 17:43:00,
2013-07-26 13:53:00,54.0,39.0,30.10,WSW,252,6.0,14.0,57,0.00,,,-99.99,,2013-07-26 17:53:00,
2013-07-26 14:00:00,55.0,36.0,30.11,WSW,252,6.0,13.0,49,0.00,,,0.00,,2013-07-26 18:00:00,
2013-07-26 14:44:00,55.0,36.0,30.11,WSW,252,6.0,13.0,49,0.00,,,0.00,,2013-07-26 18:44:00,
2013-07-26 14:52:00,55.0,36.0,30.11,WSW,252,6.0,13.0,49,0.00,,,0.00,,2013-07-26 18:52:00,
2013-07-26 15:00:00,59.0,40.0,30.12,SW,223,6.0,16.0,49,0.00,,,0.00,,2013-07-26 19:00:00,
2013-07-26 15:43:00,59.0,40.0,30.12,SW,223,6.0,16.0,49,0.00,,,0.00,,2013-07-26 19:43:00,
2013-07-26 15:52:00,59.0,40.0,30.12,SW,223,6.0,16.0,49,0.00,,,0.00,,2013-07-26 19:52:00,
2013-07-26 16:00:00,61.0,43.0,30.12,SW,229,6.0,16.0,51,0.00,,,0.00,,2013-07-26 20:00:00,
2013-07-26 16:32:00,61.0,43.0,30.12,SW,229,6.0,16.0,51,0.00,,,0.00,,2013-07-26 20:32:00,
2013-07-26 16:43:00,61.0,43.0,30.12,SW,229,6.0,16.0,51,0.00,,,0.00,,2013-07-26 20:43:00,
2013-07-26 16:53:00,61.0,43.0,30.12,SW,229,6.0,16.0,51,0.00,,,0.00,,2013-07-26 20:53:00,
2013-07-26 18:00:00,65.0,48.0,30.13,SW,225,8.0,19.0,53,0.00,,,0.00,,2013-07-26 22:00:00,
2013-07-26 18:33:00,65.0,48.0,30.13,SW,225,8.0,19.0,53,0.00,,,0.00,,2013-07-26 22:33:00,
2013-07-26 18:43:00,65.0,48.0,30.13,SW,225,8.0,19.0,53,0.00,,,0.00,,2013-07-26 22:43:00,
2013-07-26 18:53:00,65.0,48.0,30.13,SW,225,8.0,19.0,53,0.00,,,0.00,,2013-07-26 22:53:00,
2013-07-26 19:00:00,63.0,47.0,30.13,WSW,246,9.0,20.0,56,0.00,,,0.00,,2013-07-26 23:00:00,
2013-07-26 19:43:00,63.0,47.0,30.13,WSW,246,9.0,20.0,56,0.00,,,0.00,,2013-07-26 23:43:00,
2013-07-26 19:53:00,63.0,47.0,30.13,WSW,246,9.0,20.0,56,0.00,,,0.00,,2013-07-26 23:53:00,
2013-07-26 20:00:00,65.0,49.0,30.14,SW,236,8.0,18.0,56,0.00,,,0.00,,2013-07-27 00:00:00,
2013-07-26 20:32:00,65.0,49.0,30.14,SW,236,8.0,18.0,56,0.00,,,0.00,,2013-07-27 00:32:00,
2013-07-26 20:43:00,65.0,49.0,30.14,SW,236,8.0,18.0,56,0.00,,,0.00,,2013-07-27 00:43:00,
2013-07-26 20:53:00,65.0,49.0,30.14,SW,236,8.0,18.0,56,0.00,,,0.00,,2013-07-27 00:53:00,
2013-07-26 21:00:00,67.0,51.0,30.14,SW,233,7.0,17.0,56,0.00,,,0.00,,2013-07-27 01:00:00,
2013-07-26 21:32:00,67.0,51.0,30.14,SW,233,7.0,17.0,56,0.00,,,0.00,,2013-07-27 01:32:00,
2013-07-26 21:44:00,67.0,51.0,30.14,SW,233,7.0,17.0,56,0.00,,,0.00,,2013-07-27 01:44:00,
2013-07-26 21:53:00,67.0,51.0,30.14,SW,233,7.0,17.0,56,0.00,,,0.00,,2013-07-27 01:53:00,
2013-07-26 22:00:00,67.0,50.0,30.15,SW,236,7.0,17.0,55,0.00,,,0.00,,2013-07-27 02:00:00,
2013-07-26 22:32:00,67.0,50.0,30.15,SW,236,7.0,17.0,55,0.00,,,0.00,,2013-07-27 02:32:00,
2013-07-26 22:43:00,67.0,50.0,30.15,SW,236,7.0,17.0,55,0.00,,,0.00,,2013-07-27 02:43:00,
2013-07-26 22:53:00,67.0,50.0,30.15,SW,236,7.0,17.0,55,0.00,,,0.00,,2013-07-27 02:53:00,
2013-07-26 23:00:00,66.0,50.0,30.15,WSW,241,7.0,15.0,57,0.00,,,0.00,,2013-07-27 03:00:00,
2013-07-26 23:44:00,66.0,50.0,30.15,WSW,241,7.0,15.0,57,0.00,,,0.00,,2013-07-27 03:44:00,
2013-07-26 23:52:00,66.0,50.0,30.15,WSW,241,7.0,15.0,57,0.00,,,0.00,,2013-07-27 03:52:00,